sensor_id;sensor_type;location;lat;lon;timestamp;pressure;altitude;pressure_sealevel;temperature;humidity
31403;BME280;18039;52.188;21.024;2022-11-11T00:00:31;77841.81;;;-141.45;100.00
31403;BME280;18039;52.188;21.024;2022-11-11T00:03:17;77837.75;;;-141.45;100.00
31403;BME280;18039;52.188;21.024;2022-11-11T00:06:11;77845.88;;;-141.45;100.00
31403;BME280;18039;52.188;21.024;2022-11-11T00:08:58;77845.88;;;-141.45;100.00
31403;BME280;18039;52.188;21.024;2022-11-11T00:11:44;77851.97;;;-141.45;100.00
31403;BME280;18039;52.188;21.024;2022-11-11T00:14:29;77856.00;;;-141.45;100.00
31403;BME280;18039;52.188;21.024;2022-11-11T00:17:15;77862.09;;;-141.45;100.00
31403;BME280;18039;52.188;21.024;2022-11-11T00:20:19;77858.03;;;-141.45;100.00
31403;BME280;18039;52.188;21.024;2022-11-11T00:23:29;77866.16;;;-141.45;100.00
31403;BME280;18039;52.188;21.024;2022-11-11T00:26:33;77874.25;;;-141.45;100.00
31403;BME280;18039;52.188;21.024;2022-11-11T00:29:26;77874.25;;;-141.45;100.00
31403;BME280;18039;52.188;21.024;2022-11-11T00:32:12;77868.19;;;-141.45;100.00
31403;BME280;18039;52.188;21.024;2022-11-11T00:35:12;77874.25;;;-141.45;100.00
31403;BME280;18039;52.188;21.024;2022-11-11T00:38:17;77862.09;;;-141.45;100.00
31403;BME280;18039;52.188;21.024;2022-11-11T00:41:22;77862.09;;;-141.45;100.00
31403;BME280;18039;52.188;21.024;2022-11-11T00:44:08;77866.16;;;-141.45;100.00
31403;BME280;18039;52.188;21.024;2022-11-11T00:46:54;77870.22;;;-141.45;100.00
31403;BME280;18039;52.188;21.024;2022-11-11T00:49:59;77870.22;;;-141.45;100.00
31403;BME280;18039;52.188;21.024;2022-11-11T00:53:08;77876.28;;;-141.45;100.00
31403;BME280;18039;52.188;21.024;2022-11-11T00:55:55;77874.25;;;-141.45;100.00
31403;BME280;18039;52.188;21.024;2022-11-11T00:58:41;77882.38;;;-141.45;100.00
31403;BME280;18039;52.188;21.024;2022-11-11T01:01:26;77878.31;;;-141.45;100.00
31403;BME280;18039;52.188;21.024;2022-11-11T01:04:12;77864.13;;;-141.45;100.00
31403;BME280;18039;52.188;21.024;2022-11-11T01:06:58;77853.97;;;-141.45;100.00
31403;BME280;18039;52.188;21.024;2022-11-11T01:09:44;77849.94;;;-141.45;100.00
31403;BME280;18039;52.188;21.024;2022-11-11T01:12:30;77841.81;;;-141.45;100.00
31403;BME280;18039;52.188;21.024;2022-11-11T01:15:16;77833.69;;;-141.45;100.00
31403;BME280;18039;52.188;21.024;2022-11-11T01:18:02;77821.53;;;-141.45;100.00
31403;BME280;18039;52.188;21.024;2022-11-11T01:21:00;77817.47;;;-141.45;100.00
31403;BME280;18039;52.188;21.024;2022-11-11T01:23:48;77809.38;;;-141.45;100.00
31403;BME280;18039;52.188;21.024;2022-11-11T01:26:34;77797.19;;;-141.45;100.00
31403;BME280;18039;52.188;21.024;2022-11-11T01:29:21;77783.00;;;-141.45;100.00
31403;BME280;18039;52.188;21.024;2022-11-11T01:32:07;77772.88;;;-141.45;100.00
31403;BME280;18039;52.188;21.024;2022-11-11T01:34:52;77770.84;;;-141.45;100.00
31403;BME280;18039;52.188;21.024;2022-11-11T01:37:38;77766.78;;;-141.45;100.00
31403;BME280;18039;52.188;21.024;2022-11-11T01:40:24;77760.69;;;-141.45;100.00
31403;BME280;18039;52.188;21.024;2022-11-11T01:46:00;77760.69;;;-141.45;100.00
31403;BME280;18039;52.188;21.024;2022-11-11T01:48:50;77752.59;;;-141.45;100.00
31403;BME280;18039;52.188;21.024;2022-11-11T01:54:47;77736.38;;;-141.45;100.00
31403;BME280;18039;52.188;21.024;2022-11-11T01:57:39;77728.25;;;-141.45;100.00
31403;BME280;18039;52.188;21.024;2022-11-11T02:00:25;77728.25;;;-141.45;100.00
31403;BME280;18039;52.188;21.024;2022-11-11T02:03:12;77724.19;;;-141.45;100.00
31403;BME280;18039;52.188;21.024;2022-11-11T02:05:59;77712.03;;;-141.45;100.00
31403;BME280;18039;52.188;21.024;2022-11-11T02:08:46;77724.19;;;-141.45;100.00
31403;BME280;18039;52.188;21.024;2022-11-11T02:11:33;77716.09;;;-141.45;100.00
31403;BME280;18039;52.188;21.024;2022-11-11T02:14:46;77712.03;;;-141.45;100.00
31403;BME280;18039;52.188;21.024;2022-11-11T02:17:33;77707.97;;;-141.45;100.00
31403;BME280;18039;52.188;21.024;2022-11-11T02:20:24;77712.03;;;-141.45;100.00
31403;BME280;18039;52.188;21.024;2022-11-11T02:23:43;77716.09;;;-141.45;100.00
31403;BME280;18039;52.188;21.024;2022-11-11T02:26:33;77720.16;;;-141.45;100.00
31403;BME280;18039;52.188;21.024;2022-11-11T02:29:21;77736.38;;;-141.45;100.00
31403;BME280;18039;52.188;21.024;2022-11-11T02:32:07;77736.38;;;-141.45;100.00
31403;BME280;18039;52.188;21.024;2022-11-11T02:34:52;77740.44;;;-141.45;100.00
31403;BME280;18039;52.188;21.024;2022-11-11T02:37:40;77746.50;;;-141.45;100.00
31403;BME280;18039;52.188;21.024;2022-11-11T02:40:35;77768.81;;;-141.45;100.00
31403;BME280;18039;52.188;21.024;2022-11-11T02:43:22;77783.00;;;-141.45;100.00
31403;BME280;18039;52.188;21.024;2022-11-11T02:46:08;77780.97;;;-141.45;100.00
31403;BME280;18039;52.188;21.024;2022-11-11T02:48:54;77789.09;;;-141.45;100.00
31403;BME280;18039;52.188;21.024;2022-11-11T02:51:40;77789.09;;;-141.45;100.00
31403;BME280;18039;52.188;21.024;2022-11-11T02:54:26;77793.16;;;-141.45;100.00
31403;BME280;18039;52.188;21.024;2022-11-11T02:57:12;77801.25;;;-141.45;100.00
31403;BME280;18039;52.188;21.024;2022-11-11T02:59:59;77813.44;;;-141.45;100.00
31403;BME280;18039;52.188;21.024;2022-11-11T03:02:45;77813.44;;;-141.45;100.00
31403;BME280;18039;52.188;21.024;2022-11-11T03:05:31;77817.47;;;-141.45;100.00
31403;BME280;18039;52.188;21.024;2022-11-11T03:08:17;77819.50;;;-141.45;100.00
31403;BME280;18039;52.188;21.024;2022-11-11T03:11:03;77825.59;;;-141.45;100.00
31403;BME280;18039;52.188;21.024;2022-11-11T03:13:49;77829.66;;;-141.45;100.00
31403;BME280;18039;52.188;21.024;2022-11-11T03:16:35;77833.69;;;-141.45;100.00
31403;BME280;18039;52.188;21.024;2022-11-11T03:19:39;77837.75;;;-141.45;100.00
31403;BME280;18039;52.188;21.024;2022-11-11T03:22:25;77837.75;;;-141.45;100.00
31403;BME280;18039;52.188;21.024;2022-11-11T03:25:32;77841.81;;;-141.45;100.00
31403;BME280;18039;52.188;21.024;2022-11-11T03:28:24;77839.78;;;-141.45;100.00
31403;BME280;18039;52.188;21.024;2022-11-11T03:31:10;77845.88;;;-141.45;100.00
31403;BME280;18039;52.188;21.024;2022-11-11T03:33:56;77841.81;;;-141.45;100.00
31403;BME280;18039;52.188;21.024;2022-11-11T03:37:02;77841.81;;;-141.45;100.00
31403;BME280;18039;52.188;21.024;2022-11-11T03:40:07;77849.94;;;-141.45;100.00
31403;BME280;18039;52.188;21.024;2022-11-11T03:42:53;77845.88;;;-141.45;100.00
31403;BME280;18039;52.188;21.024;2022-11-11T03:45:46;77845.88;;;-141.45;100.00
31403;BME280;18039;52.188;21.024;2022-11-11T03:48:33;77845.88;;;-141.45;100.00
31403;BME280;18039;52.188;21.024;2022-11-11T03:51:19;77853.97;;;-141.45;100.00
31403;BME280;18039;52.188;21.024;2022-11-11T03:54:05;77856.00;;;-141.45;100.00
31403;BME280;18039;52.188;21.024;2022-11-11T03:56:50;77856.00;;;-141.45;100.00
31403;BME280;18039;52.188;21.024;2022-11-11T03:59:36;77862.09;;;-141.45;100.00
31403;BME280;18039;52.188;21.024;2022-11-11T04:02:22;77868.19;;;-141.45;100.00
31403;BME280;18039;52.188;21.024;2022-11-11T04:05:27;77866.16;;;-141.45;100.00
31403;BME280;18039;52.188;21.024;2022-11-11T04:08:31;77866.16;;;-141.45;100.00
31403;BME280;18039;52.188;21.024;2022-11-11T04:11:40;77868.19;;;-141.45;100.00
31403;BME280;18039;52.188;21.024;2022-11-11T04:14:27;77860.06;;;-141.45;100.00
31403;BME280;18039;52.188;21.024;2022-11-11T04:17:31;77870.22;;;-141.45;100.00
31403;BME280;18039;52.188;21.024;2022-11-11T04:20:17;77864.13;;;-141.45;100.00
31403;BME280;18039;52.188;21.024;2022-11-11T04:23:21;77870.22;;;-141.45;100.00
31403;BME280;18039;52.188;21.024;2022-11-11T04:26:07;77880.34;;;-141.45;100.00
31403;BME280;18039;52.188;21.024;2022-11-11T04:28:53;77884.41;;;-141.45;100.00
31403;BME280;18039;52.188;21.024;2022-11-11T04:32:02;77886.44;;;-141.45;100.00
31403;BME280;18039;52.188;21.024;2022-11-11T04:35:08;77886.44;;;-141.45;100.00
31403;BME280;18039;52.188;21.024;2022-11-11T04:37:54;77890.47;;;-141.45;100.00
31403;BME280;18039;52.188;21.024;2022-11-11T04:41:00;77878.31;;;-141.45;100.00
31403;BME280;18039;52.188;21.024;2022-11-11T04:43:49;77874.25;;;-141.45;100.00
31403;BME280;18039;52.188;21.024;2022-11-11T04:46:52;77882.38;;;-141.45;100.00
31403;BME280;18039;52.188;21.024;2022-11-11T04:49:38;77880.34;;;-141.45;100.00
31403;BME280;18039;52.188;21.024;2022-11-11T04:52:24;77874.25;;;-141.45;100.00
31403;BME280;18039;52.188;21.024;2022-11-11T04:55:16;77894.53;;;-141.45;100.00
31403;BME280;18039;52.188;21.024;2022-11-11T04:58:22;77886.44;;;-141.45;100.00
31403;BME280;18039;52.188;21.024;2022-11-11T05:01:09;77890.47;;;-141.45;100.00
31403;BME280;18039;52.188;21.024;2022-11-11T05:03:54;77890.47;;;-141.45;100.00
31403;BME280;18039;52.188;21.024;2022-11-11T05:06:40;77886.44;;;-141.45;100.00
31403;BME280;18039;52.188;21.024;2022-11-11T05:09:44;77874.25;;;-141.45;100.00
31403;BME280;18039;52.188;21.024;2022-11-11T05:12:30;77878.31;;;-141.45;100.00
31403;BME280;18039;52.188;21.024;2022-11-11T05:15:15;77886.44;;;-141.45;100.00
31403;BME280;18039;52.188;21.024;2022-11-11T05:18:19;77888.47;;;-141.45;100.00
31403;BME280;18039;52.188;21.024;2022-11-11T05:21:26;77872.22;;;-141.45;100.00
31403;BME280;18039;52.188;21.024;2022-11-11T05:24:13;77870.22;;;-141.45;100.00
31403;BME280;18039;52.188;21.024;2022-11-11T05:27:17;77862.09;;;-141.45;100.00
31403;BME280;18039;52.188;21.024;2022-11-11T05:30:05;77862.09;;;-141.45;100.00
31403;BME280;18039;52.188;21.024;2022-11-11T05:32:53;77862.09;;;-141.45;100.00
31403;BME280;18039;52.188;21.024;2022-11-11T05:35:40;77868.19;;;-141.45;100.00
31403;BME280;18039;52.188;21.024;2022-11-11T05:38:25;77866.16;;;-141.45;100.00
31403;BME280;18039;52.188;21.024;2022-11-11T05:41:11;77849.94;;;-141.45;100.00
31403;BME280;18039;52.188;21.024;2022-11-11T05:43:56;77849.94;;;-141.45;100.00
31403;BME280;18039;52.188;21.024;2022-11-11T05:46:42;77853.97;;;-141.45;100.00
31403;BME280;18039;52.188;21.024;2022-11-11T05:49:28;77853.97;;;-141.45;100.00
31403;BME280;18039;52.188;21.024;2022-11-11T05:52:15;77843.84;;;-141.45;100.00
31403;BME280;18039;52.188;21.024;2022-11-11T05:55:00;77841.81;;;-141.45;100.00
31403;BME280;18039;52.188;21.024;2022-11-11T05:57:46;77847.91;;;-141.45;100.00
31403;BME280;18039;52.188;21.024;2022-11-11T06:00:32;77849.94;;;-141.45;100.00
31403;BME280;18039;52.188;21.024;2022-11-11T06:03:17;77841.81;;;-141.45;100.00
31403;BME280;18039;52.188;21.024;2022-11-11T06:06:03;77833.69;;;-141.45;100.00
31403;BME280;18039;52.188;21.024;2022-11-11T06:08:49;77829.66;;;-141.45;100.00
31403;BME280;18039;52.188;21.024;2022-11-11T06:11:34;77825.59;;;-141.45;100.00
31403;BME280;18039;52.188;21.024;2022-11-11T06:14:20;77835.72;;;-141.45;100.00
31403;BME280;18039;52.188;21.024;2022-11-11T06:17:06;77817.47;;;-141.45;100.00
31403;BME280;18039;52.188;21.024;2022-11-11T06:19:52;77805.31;;;-141.45;100.00
31403;BME280;18039;52.188;21.024;2022-11-11T06:22:37;77803.28;;;-141.45;100.00
31403;BME280;18039;52.188;21.024;2022-11-11T06:25:41;77797.19;;;-141.45;100.00
31403;BME280;18039;52.188;21.024;2022-11-11T06:28:53;77797.19;;;-141.45;100.00
31403;BME280;18039;52.188;21.024;2022-11-11T06:31:40;77793.16;;;-141.45;100.00
31403;BME280;18039;52.188;21.024;2022-11-11T06:34:29;77797.19;;;-141.45;100.00
31403;BME280;18039;52.188;21.024;2022-11-11T06:37:26;77791.13;;;-141.45;100.00
31403;BME280;18039;52.188;21.024;2022-11-11T06:40:11;77785.03;;;-141.45;100.00
31403;BME280;18039;52.188;21.024;2022-11-11T06:43:03;77780.97;;;-141.45;100.00
31403;BME280;18039;52.188;21.024;2022-11-11T06:45:49;77772.88;;;-141.45;99.98
31403;BME280;18039;52.188;21.024;2022-11-11T06:48:35;77768.81;;;-141.45;99.98
31403;BME280;18039;52.188;21.024;2022-11-11T06:51:21;77760.69;;;-141.45;99.58
31403;BME280;18039;52.188;21.024;2022-11-11T06:54:07;77776.94;;;-141.45;99.42
31403;BME280;18039;52.188;21.024;2022-11-11T06:56:53;77768.81;;;-141.45;99.38
31403;BME280;18039;52.188;21.024;2022-11-11T06:59:39;77764.75;;;-141.45;99.01
31403;BME280;18039;52.188;21.024;2022-11-11T07:02:24;77760.69;;;-141.45;98.73
31403;BME280;18039;52.188;21.024;2022-11-11T07:05:10;77760.69;;;-141.45;98.62
31403;BME280;18039;52.188;21.024;2022-11-11T07:07:55;77764.75;;;-141.45;98.62
31403;BME280;18039;52.188;21.024;2022-11-11T07:10:47;77752.59;;;-141.45;98.65
31403;BME280;18039;52.188;21.024;2022-11-11T07:13:33;77744.47;;;-141.45;98.61
31403;BME280;18039;52.188;21.024;2022-11-11T07:16:18;77736.38;;;-141.45;98.42
31403;BME280;18039;52.188;21.024;2022-11-11T07:19:04;77728.25;;;-141.45;97.95
31403;BME280;18039;52.188;21.024;2022-11-11T07:21:49;77724.19;;;-141.45;97.62
31403;BME280;18039;52.188;21.024;2022-11-11T07:24:35;77730.28;;;-141.45;97.76
31403;BME280;18039;52.188;21.024;2022-11-11T07:27:21;77720.16;;;-141.45;97.41
31403;BME280;18039;52.188;21.024;2022-11-11T07:30:08;77707.97;;;-141.45;97.53
31403;BME280;18039;52.188;21.024;2022-11-11T07:32:56;77703.94;;;-141.45;97.00
31403;BME280;18039;52.188;21.024;2022-11-11T07:35:41;77695.81;;;-141.45;97.02
31403;BME280;18039;52.188;21.024;2022-11-11T07:38:27;77691.75;;;-141.45;97.09
31403;BME280;18039;52.188;21.024;2022-11-11T07:41:13;77679.59;;;-141.45;97.19
31403;BME280;18039;52.188;21.024;2022-11-11T07:43:59;77667.44;;;-141.45;96.51
31403;BME280;18039;52.188;21.024;2022-11-11T07:46:44;77663.38;;;-141.45;96.35
31403;BME280;18039;52.188;21.024;2022-11-11T07:49:30;77647.16;;;-141.45;96.11
31403;BME280;18039;52.188;21.024;2022-11-11T07:52:16;77651.19;;;-141.45;96.04
31403;BME280;18039;52.188;21.024;2022-11-11T07:55:05;77647.16;;;-141.45;96.04
31403;BME280;18039;52.188;21.024;2022-11-11T07:57:51;77630.94;;;-141.45;95.62
31403;BME280;18039;52.188;21.024;2022-11-11T08:00:37;77622.81;;;-141.45;95.68
31403;BME280;18039;52.188;21.024;2022-11-11T08:03:23;77618.75;;;-141.45;95.59
31403;BME280;18039;52.188;21.024;2022-11-11T08:06:09;77618.75;;;-141.45;94.41
31403;BME280;18039;52.188;21.024;2022-11-11T08:08:54;77618.75;;;-141.45;94.49
31403;BME280;18039;52.188;21.024;2022-11-11T08:11:40;77614.69;;;-141.45;94.60
31403;BME280;18039;52.188;21.024;2022-11-11T08:14:44;77618.75;;;-141.45;94.41
31403;BME280;18039;52.188;21.024;2022-11-11T08:17:35;77614.69;;;-141.45;93.72
31403;BME280;18039;52.188;21.024;2022-11-11T08:20:21;77614.69;;;-141.45;93.51
31403;BME280;18039;52.188;21.024;2022-11-11T08:23:07;77606.59;;;-141.45;93.31
31403;BME280;18039;52.188;21.024;2022-11-11T08:26:14;77586.31;;;-141.45;93.25
31403;BME280;18039;52.188;21.024;2022-11-11T08:29:00;77578.22;;;-141.45;93.04
31403;BME280;18039;52.188;21.024;2022-11-11T08:31:46;77574.16;;;-141.45;92.11
31403;BME280;18039;52.188;21.024;2022-11-11T08:34:32;77559.97;;;-141.45;92.50
31403;BME280;18039;52.188;21.024;2022-11-11T08:37:17;77557.94;;;-141.45;91.29
31403;BME280;18039;52.188;21.024;2022-11-11T08:40:04;77549.81;;;-141.45;91.02
31403;BME280;18039;52.188;21.024;2022-11-11T08:42:50;77541.72;;;-141.45;90.97
31403;BME280;18039;52.188;21.024;2022-11-11T08:45:35;77531.56;;;-141.45;90.75
31403;BME280;18039;52.188;21.024;2022-11-11T08:48:21;77521.44;;;-141.45;89.93
31403;BME280;18039;52.188;21.024;2022-11-11T08:51:07;77505.22;;;-141.45;89.60
31403;BME280;18039;52.188;21.024;2022-11-11T08:53:53;77505.22;;;-141.45;89.95
31403;BME280;18039;52.188;21.024;2022-11-11T08:56:39;77501.16;;;-141.45;89.34
31403;BME280;18039;52.188;21.024;2022-11-11T08:59:24;77509.25;;;-141.45;89.38
31403;BME280;18039;52.188;21.024;2022-11-11T09:02:11;77499.13;;;-141.45;88.95
31403;BME280;18039;52.188;21.024;2022-11-11T09:04:57;77493.03;;;-141.45;88.46
31403;BME280;18039;52.188;21.024;2022-11-11T09:07:44;77489.00;;;-141.45;88.20
31403;BME280;18039;52.188;21.024;2022-11-11T09:10:30;77484.94;;;-141.45;88.01
31403;BME280;18039;52.188;21.024;2022-11-11T09:13:16;77480.88;;;-141.45;88.50
31403;BME280;18039;52.188;21.024;2022-11-11T09:16:02;77472.78;;;-141.45;88.15
31403;BME280;18039;52.188;21.024;2022-11-11T09:18:47;77456.53;;;-141.45;88.19
31403;BME280;18039;52.188;21.024;2022-11-11T09:21:33;77448.44;;;-141.45;87.43
31403;BME280;18039;52.188;21.024;2022-11-11T09:24:19;77452.50;;;-141.45;86.97
31403;BME280;18039;52.188;21.024;2022-11-11T09:27:05;77450.47;;;-141.45;86.40
31403;BME280;18039;52.188;21.024;2022-11-11T09:29:50;77444.38;;;-141.45;86.70
31403;BME280;18039;52.188;21.024;2022-11-11T09:32:36;77432.22;;;-141.45;86.66
31403;BME280;18039;52.188;21.024;2022-11-11T09:35:23;77432.22;;;-141.45;86.88
31403;BME280;18039;52.188;21.024;2022-11-11T09:38:08;77418.03;;;-141.45;86.63
31403;BME280;18039;52.188;21.024;2022-11-11T09:41:21;77407.88;;;-141.45;86.68
31403;BME280;18039;52.188;21.024;2022-11-11T09:44:32;77391.66;;;-141.45;86.39
31403;BME280;18039;52.188;21.024;2022-11-11T09:50:21;77395.72;;;-141.45;85.73
31403;BME280;18039;52.188;21.024;2022-11-11T09:53:16;77395.72;;;-141.45;85.04
31403;BME280;18039;52.188;21.024;2022-11-11T09:56:17;77403.84;;;-141.45;85.05
31403;BME280;18039;52.188;21.024;2022-11-11T09:59:26;77379.50;;;-141.45;83.94
31403;BME280;18039;52.188;21.024;2022-11-11T10:02:48;77375.44;;;-141.45;84.43
31403;BME280;18039;52.188;21.024;2022-11-11T10:05:35;77371.38;;;-141.45;84.28
31403;BME280;18039;52.188;21.024;2022-11-11T10:08:33;77383.56;;;-141.45;83.91
31403;BME280;18039;52.188;21.024;2022-11-11T10:11:28;77387.59;;;-141.45;84.45
31403;BME280;18039;52.188;21.024;2022-11-11T10:14:16;77371.38;;;-141.45;84.09
31403;BME280;18039;52.188;21.024;2022-11-11T10:20:12;77375.44;;;-141.45;84.62
31403;BME280;18039;52.188;21.024;2022-11-11T10:23:07;77371.38;;;-141.45;83.27
31403;BME280;18039;52.188;21.024;2022-11-11T10:25:56;77367.34;;;-141.45;83.02
31403;BME280;18039;52.188;21.024;2022-11-11T10:28:48;77357.19;;;-141.45;83.44
31403;BME280;18039;52.188;21.024;2022-11-11T10:31:35;77359.22;;;-141.45;83.29
31403;BME280;18039;52.188;21.024;2022-11-11T10:34:21;77347.06;;;-141.45;82.43
31403;BME280;18039;52.188;21.024;2022-11-11T10:37:21;77340.97;;;-141.45;82.32
31403;BME280;18039;52.188;21.024;2022-11-11T10:40:16;77340.97;;;-141.45;82.77
31403;BME280;18039;52.188;21.024;2022-11-11T10:43:02;77347.06;;;-141.45;82.36
31403;BME280;18039;52.188;21.024;2022-11-11T10:46:00;77336.91;;;-141.45;82.19
31403;BME280;18039;52.188;21.024;2022-11-11T10:49:10;77338.94;;;-141.45;82.01
31403;BME280;18039;52.188;21.024;2022-11-11T10:52:09;77326.78;;;-141.45;82.28
31403;BME280;18039;52.188;21.024;2022-11-11T10:58:18;77310.56;;;-141.45;80.69
31403;BME280;18039;52.188;21.024;2022-11-11T11:01:09;77302.44;;;-141.45;80.84
31403;BME280;18039;52.188;21.024;2022-11-11T11:04:04;77294.34;;;-141.45;80.23
31403;BME280;18039;52.188;21.024;2022-11-11T11:06:52;77298.41;;;-141.45;80.67
31403;BME280;18039;52.188;21.024;2022-11-11T11:10:10;77290.28;;;-141.45;81.03
31403;BME280;18039;52.188;21.024;2022-11-11T11:13:02;77290.28;;;-141.45;79.97
31403;BME280;18039;52.188;21.024;2022-11-11T11:15:56;77294.34;;;-141.45;80.23
31403;BME280;18039;52.188;21.024;2022-11-11T11:18:43;77290.28;;;-141.45;80.59
31403;BME280;18039;52.188;21.024;2022-11-11T11:21:50;77290.28;;;-141.45;80.69
31403;BME280;18039;52.188;21.024;2022-11-11T11:24:36;77290.28;;;-141.45;80.59
31403;BME280;18039;52.188;21.024;2022-11-11T11:27:29;77286.22;;;-141.45;80.58
31403;BME280;18039;52.188;21.024;2022-11-11T11:30:17;77282.19;;;-141.45;80.42
31403;BME280;18039;52.188;21.024;2022-11-11T11:33:07;77274.06;;;-141.45;80.48
31403;BME280;18039;52.188;21.024;2022-11-11T11:35:53;77270.00;;;-141.45;80.51
31403;BME280;18039;52.188;21.024;2022-11-11T11:38:45;77270.00;;;-141.45;80.62
31403;BME280;18039;52.188;21.024;2022-11-11T11:41:41;77270.00;;;-141.45;79.59
31403;BME280;18039;52.188;21.024;2022-11-11T11:50:23;77270.00;;;-141.45;80.63
31403;BME280;18039;52.188;21.024;2022-11-11T11:53:24;77265.97;;;-141.45;79.77
31403;BME280;18039;52.188;21.024;2022-11-11T11:56:31;77265.97;;;-141.45;80.12
31403;BME280;18039;52.188;21.024;2022-11-11T11:59:33;77270.00;;;-141.45;80.25
31403;BME280;18039;52.188;21.024;2022-11-11T12:14:47;77229.47;;;-141.45;79.01
31403;BME280;18039;52.188;21.024;2022-11-11T12:21:16;77241.63;;;-141.45;79.32
31403;BME280;18039;52.188;21.024;2022-11-11T12:30:20;77265.97;;;-141.45;78.98
31403;BME280;18039;52.188;21.024;2022-11-11T12:36:07;77282.19;;;-141.45;79.58
31403;BME280;18039;52.188;21.024;2022-11-11T12:39:25;77274.06;;;-141.45;78.81
31403;BME280;18039;52.188;21.024;2022-11-11T12:45:50;77278.13;;;-141.45;79.15
31403;BME280;18039;52.188;21.024;2022-11-11T12:48:55;77284.22;;;-141.45;78.99
31403;BME280;18039;52.188;21.024;2022-11-11T12:58:24;77298.41;;;-141.45;78.54
31403;BME280;18039;52.188;21.024;2022-11-11T13:01:16;77306.50;;;-141.45;79.45
31403;BME280;18039;52.188;21.024;2022-11-11T13:10:41;77290.28;;;-141.45;78.71
31403;BME280;18039;52.188;21.024;2022-11-11T13:13:48;77290.28;;;-141.45;78.34
31403;BME280;18039;52.188;21.024;2022-11-11T13:16:37;77302.44;;;-141.45;78.29
31403;BME280;18039;52.188;21.024;2022-11-11T13:22:20;77302.44;;;-141.45;78.18
31403;BME280;18039;52.188;21.024;2022-11-11T13:25:14;77306.50;;;-141.45;78.22
31403;BME280;18039;52.188;21.024;2022-11-11T13:31:13;77290.28;;;-141.45;78.54
31403;BME280;18039;52.188;21.024;2022-11-11T13:34:09;77286.22;;;-141.45;78.49
31403;BME280;18039;52.188;21.024;2022-11-11T13:36:58;77302.44;;;-141.45;78.94
31403;BME280;18039;52.188;21.024;2022-11-11T13:39:49;77294.34;;;-141.45;79.33
31403;BME280;18039;52.188;21.024;2022-11-11T13:42:48;77302.44;;;-141.45;79.40
31403;BME280;18039;52.188;21.024;2022-11-11T13:45:40;77306.50;;;-141.45;79.26
31403;BME280;18039;52.188;21.024;2022-11-11T13:48:35;77306.50;;;-141.45;79.29
31403;BME280;18039;52.188;21.024;2022-11-11T13:51:39;77298.41;;;-141.45;78.26
31403;BME280;18039;52.188;21.024;2022-11-11T13:54:41;77316.66;;;-141.45;78.97
31403;BME280;18039;52.188;21.024;2022-11-11T13:57:46;77306.50;;;-141.45;79.11
31403;BME280;18039;52.188;21.024;2022-11-11T14:00:37;77318.66;;;-141.45;79.31
31403;BME280;18039;52.188;21.024;2022-11-11T14:09:02;77336.91;;;-141.45;79.54
31403;BME280;18039;52.188;21.024;2022-11-11T14:11:48;77338.94;;;-141.45;79.28
31403;BME280;18039;52.188;21.024;2022-11-11T14:17:20;77347.06;;;-141.45;79.64
31403;BME280;18039;52.188;21.024;2022-11-11T14:29:00;77371.38;;;-141.45;80.62
31403;BME280;18039;52.188;21.024;2022-11-11T14:35:14;77389.63;;;-141.45;81.08
31403;BME280;18039;52.188;21.024;2022-11-11T14:47:18;77401.81;;;-141.45;81.70
31403;BME280;18039;52.188;21.024;2022-11-11T14:53:19;77416.00;;;-141.45;82.48
31403;BME280;18039;52.188;21.024;2022-11-11T14:56:17;77416.00;;;-141.45;82.53
31403;BME280;18039;52.188;21.024;2022-11-11T14:59:06;77413.97;;;-141.45;82.43
31403;BME280;18039;52.188;21.024;2022-11-11T15:01:54;77424.09;;;-141.45;83.23
31403;BME280;18039;52.188;21.024;2022-11-11T15:04:40;77428.16;;;-141.45;83.39
31403;BME280;18039;52.188;21.024;2022-11-11T15:11:38;77436.28;;;-141.45;83.93
31403;BME280;18039;52.188;21.024;2022-11-11T15:15:14;77448.44;;;-141.45;84.40
31403;BME280;18039;52.188;21.024;2022-11-11T15:18:40;77458.56;;;-141.45;84.95
31403;BME280;18039;52.188;21.024;2022-11-11T15:22:09;77464.66;;;-141.45;85.07
31403;BME280;18039;52.188;21.024;2022-11-11T15:28:15;77484.94;;;-141.45;86.00
31403;BME280;18039;52.188;21.024;2022-11-11T15:37:31;77497.09;;;-141.45;86.83
31403;BME280;18039;52.188;21.024;2022-11-11T15:40:25;77505.22;;;-141.45;87.40
31403;BME280;18039;52.188;21.024;2022-11-11T15:43:21;77505.22;;;-141.45;87.41
31403;BME280;18039;52.188;21.024;2022-11-11T15:46:40;77513.31;;;-141.45;87.80
31403;BME280;18039;52.188;21.024;2022-11-11T15:49:45;77525.47;;;-141.45;88.22
31403;BME280;18039;52.188;21.024;2022-11-11T15:52:35;77525.47;;;-141.45;88.02
31403;BME280;18039;52.188;21.024;2022-11-11T15:55:27;77533.59;;;-141.45;88.28
31403;BME280;18039;52.188;21.024;2022-11-11T15:58:17;77529.53;;;-141.45;88.60
31403;BME280;18039;52.188;21.024;2022-11-11T16:01:05;77529.53;;;-141.45;88.82
31403;BME280;18039;52.188;21.024;2022-11-11T16:03:55;77505.22;;;-141.45;88.26
31403;BME280;18039;52.188;21.024;2022-11-11T16:06:41;77503.19;;;-141.45;87.35
31403;BME280;18039;52.188;21.024;2022-11-11T16:09:29;77505.22;;;-141.45;87.90
31403;BME280;18039;52.188;21.024;2022-11-11T16:12:31;77505.22;;;-141.45;88.18
31403;BME280;18039;52.188;21.024;2022-11-11T16:15:27;77497.09;;;-141.45;87.98
31403;BME280;18039;52.188;21.024;2022-11-11T16:18:23;77493.03;;;-141.45;87.44
31403;BME280;18039;52.188;21.024;2022-11-11T16:21:13;77491.03;;;-141.45;87.72
31403;BME280;18039;52.188;21.024;2022-11-11T16:24:01;77489.00;;;-141.45;87.90